aviador You're here:

EHWO Decoded Metar

WOENSDRECHT in NETHERLANDS
Report Time2017-11-20 05:25:00
UTC Time2017-11-20 05:32:22
Flight Rules vfr VFR
Wind220° at 06 kt
W.Decomp.*RWY 25: 5.2 kt HW 2.9 kt LCW
W.Rank220° ranks 1
Current wind is below 220° avg. (7.9)
Visibility9999 m
Phenomena:N/A
Clouds:Few 047 Hf
Broken 051 Hf
Broken 059 Hf
Expected CloudBase > 1,200 ft AGL from Temp-Dew spread
Ceiling5,100 ft
Temp05°C (ISA -10)
Dew Point02°C (81% RH)
AAT1.2°C
QNH1020 hPa
Density Alt-1,280 ft
Elevation56 ft
Report Wrong Elevation
Raw Report
EHWO 200525Z AUTO 22006KT 9999 FEW047 BKN051 BKN059 05/02 Q1020
BLU=

Extra information for EHWO:More info

Metar Taf Metar & Taf Last 4 Metars F.Rules Stats Wind Profile Meteogram Temp Stats Airport Information Weather charts Add Link Nearby VenuesMetar ALERT Operation Metar Decoded Social comments